AirNav   Everest Fuels
 
 1599 users online  

3LL9 Compton Airport
Pocahontas, Illinois, USA

GOING TO POCAHONTAS?


FAA INFORMATION EFFECTIVE 20 MAY 2021

Location

FAA Identifier: 3LL9
Lat/Long: 38-48-15.0000N 089-36-32.0000W
38-48.250000N 089-36.533333W
38.8041667,-89.6088889
(estimated)
Elevation: 535 ft. / 163 m
From city: 2 miles SW of POCAHONTAS, IL
Time zone: UTC -5 (UTC -6 during Standard Time)
Zip code: 62275

Airport Operations

Airport use: Private use. Permission required prior to landing
Activation date: 05/2004
Control tower: no
ARTCC: KANSAS CITY CENTER
FSS: COLUMBIA FLIGHT SERVICE STATION
Attendance: UNATNDD
Segmented circle: no

Airport Communications

WX AWOS-A at GRE (11 nm E): 123.05 (618-664-1939)

Nearby radio navigation aids

VOR radial/distance  VOR name  Freq  Var
TOYr071/15.0TROY VORTAC116.0004E
VLAr226/27.1VANDALIA VOR/DME114.3004E
ENLr314/31.2CENTRALIA VORTAC115.0004E

 
NDB name  Hdg/Dist  Freq  Var  ID
CIVIC MEMORIAL105/21.626301WCVM -.-. ...- --

Airport Services

Runway Information

Runway 15/33

Dimensions: 1600 x 100 ft. / 488 x 30 m
Surface: turf
RUNWAY 15  RUNWAY 33
Traffic pattern: leftright
Obstructions: 45 ft. trees, 900 ft. from runway24 ft. pline, 366 ft. from runway

Airport Ownership and Management from official FAA records

Ownership: Privately-owned
Owner: DELMAR D. COMPTON JR.
14229 LANDOLT ROAD
POCAHONTAS, IL 62275
Phone (618) 567-1237
Manager: DELMAR D. COMPTON JR.
14229 LANDOLT ROAD
POCAHONTAS, IL 62275
Phone (618) 567-1237

Airport Operational Statistics

Aircraft based on the field: 1
Single engine airplanes: 1
    

Additional Remarks

FOR CD CTC ST LOUIS APCH AT 314-890-1018.

Instrument Procedures

There are no published instrument procedures at 3LL9.

Some nearby airports with instrument procedures:

KGRE - Greenville Airport (11 nm E)
KBLV - Scott Air Force Base/MidAmerica Airport (19 nm SW)
KALN - St Louis Regional Airport (21 nm W)
3LF - Litchfield Municipal Airport (22 nm N)
KVLA - Vandalia Municipal Airport (24 nm NE)
 
Loc | Ops | Rwys | IFR | FBO | Links
Com | Nav | Svcs | Stats | Notes
Area around 3LL9 (Compton Airport)
 
Road maps at: MapQuest Bing Google
 
Aerial photo
No photo
 
Sectional chart

 
Airport distance calculator
Flying to Compton Airport? Find the distance to fly.

From to 3LL9

Sunrise and sunset
Times for 14-Jun-2021
 Local
(UTC-5)
 Zulu
(UTC)
Morning civil twilight05:0210:02
Sunrise05:3410:34
Sunset20:2401:24
Evening civil twilight20:5601:56

Current date and time
Zulu (UTC)  14-Jun-2021 19:42:07
Local (UTC-5)  14-Jun-2021 14:42:07
 
METAR
KBLV 
19nm SW 
141856Z AUTO 30012G15KT 10SM CLR 35/20 A2993 RMK AO2 PRESFR SLP134 T03450204 $
KALN 
20nm W 
141850Z 34010KT 10SM CLR 34/19 A2996
K3LF 
22nm N 
141855Z AUTO 31008G14KT 10SM CLR 32/14 A2998 RMK AO2 T03190135
KCPS 
29nm SW 
141853Z 34012G21KT 10SM CLR 35/15 A2995 RMK AO2 SLP138 T03500150
KENL 
29nm SE 
141855Z AUTO 32010G13KT 10SM CLR 34/17 A2993 RMK AO2 T03400172
KSLO 
31nm E 
141855Z AUTO 31007G15KT 10SM CLR 34/16 A2994 RMK AO2 T03400158
KSTL 
36nm W 
141851Z 33013G19KT 10SM BKN250 36/14 A2997 RMK AO2 SLP135 T03560144
TAF
KBLV 
19nm SW 
141600Z 1416/1522 31010G15KT 9999 SKC QNH2996INS BECMG 1417/1418 32012G22KT 9999 FEW130 QNH2989INS BECMG 1422/1423 35009KT 9999 SKC QNH2990INS TX35/1420Z TN16/1510Z
NOTAMs
Click for the latest NOTAMs
NOTAMs are issued by the DoD/FAA and will open in a separate window not controlled by AirNav.

 

 
 

Would you like to see your business listed on this page?

 If your business provides an interesting product or service to pilots, flight crews, aircraft, or users of the Compton Airport, you should consider listing it here.  To start the listing process, click on the button below
 
Add a business
 

Other Pages about Compton Airport

Update a link
 
Copyright © AirNav, LLC. All rights reserved. Privacy Policy  Contact